sensor_id;sensor_type;location;lat;lon;timestamp;temperature;humidity
3860;DHT22;1945;52.036;8.614;2023-12-22T00:01:18;5.60;1.00
3860;DHT22;1945;52.036;8.614;2023-12-22T00:03:45;6.10;1.00
3860;DHT22;1945;52.036;8.614;2023-12-22T00:06:12;5.60;1.00
3860;DHT22;1945;52.036;8.614;2023-12-22T00:08:40;5.60;1.00
3860;DHT22;1945;52.036;8.614;2023-12-22T00:11:08;5.60;99.90
3860;DHT22;1945;52.036;8.614;2023-12-22T00:13:34;5.60;99.90
3860;DHT22;1945;52.036;8.614;2023-12-22T00:16:01;5.60;99.90
3860;DHT22;1945;52.036;8.614;2023-12-22T00:18:28;5.60;99.90
3860;DHT22;1945;52.036;8.614;2023-12-22T00:20:56;5.60;99.90
3860;DHT22;1945;52.036;8.614;2023-12-22T00:23:23;5.60;99.90
3860;DHT22;1945;52.036;8.614;2023-12-22T00:25:51;5.60;1.00
3860;DHT22;1945;52.036;8.614;2023-12-22T00:28:17;5.60;1.00
3860;DHT22;1945;52.036;8.614;2023-12-22T00:30:44;5.70;1.00
3860;DHT22;1945;52.036;8.614;2023-12-22T00:33:11;5.60;1.00
3860;DHT22;1945;52.036;8.614;2023-12-22T00:35:38;5.60;1.00
3860;DHT22;1945;52.036;8.614;2023-12-22T00:38:05;5.60;1.00
3860;DHT22;1945;52.036;8.614;2023-12-22T00:40:31;5.20;1.00
3860;DHT22;1945;52.036;8.614;2023-12-22T00:42:59;4.50;99.90
3860;DHT22;1945;52.036;8.614;2023-12-22T00:45:26;3.90;1.00
3860;DHT22;1945;52.036;8.614;2023-12-22T00:47:53;4.00;1.00
3860;DHT22;1945;52.036;8.614;2023-12-22T00:50:20;3.90;1.00
3860;DHT22;1945;52.036;8.614;2023-12-22T00:52:47;4.10;1.00
3860;DHT22;1945;52.036;8.614;2023-12-22T00:55:14;4.20;1.00
3860;DHT22;1945;52.036;8.614;2023-12-22T00:57:41;4.20;1.00
3860;DHT22;1945;52.036;8.614;2023-12-22T01:00:10;4.30;1.00
3860;DHT22;1945;52.036;8.614;2023-12-22T01:02:38;4.40;1.00
3860;DHT22;1945;52.036;8.614;2023-12-22T01:05:05;4.40;1.00
3860;DHT22;1945;52.036;8.614;2023-12-22T01:07:32;4.40;1.00
3860;DHT22;1945;52.036;8.614;2023-12-22T01:09:59;4.50;1.00
3860;DHT22;1945;52.036;8.614;2023-12-22T01:12:27;4.60;1.00
3860;DHT22;1945;52.036;8.614;2023-12-22T01:14:54;4.70;99.90
3860;DHT22;1945;52.036;8.614;2023-12-22T01:17:22;4.70;1.00
3860;DHT22;1945;52.036;8.614;2023-12-22T01:19:49;4.90;99.90
3860;DHT22;1945;52.036;8.614;2023-12-22T01:22:16;4.90;99.90
3860;DHT22;1945;52.036;8.614;2023-12-22T01:24:43;5.00;87.90
3860;DHT22;1945;52.036;8.614;2023-12-22T01:27:11;5.00;94.40
3860;DHT22;1945;52.036;8.614;2023-12-22T01:29:38;5.10;1.00
3860;DHT22;1945;52.036;8.614;2023-12-22T01:32:05;5.10;99.90
3860;DHT22;1945;52.036;8.614;2023-12-22T01:34:33;4.70;99.90
3860;DHT22;1945;52.036;8.614;2023-12-22T01:37:00;4.50;99.90
3860;DHT22;1945;52.036;8.614;2023-12-22T01:39:27;4.20;1.00
3860;DHT22;1945;52.036;8.614;2023-12-22T01:41:54;4.00;1.00
3860;DHT22;1945;52.036;8.614;2023-12-22T01:44:20;3.90;1.00
3860;DHT22;1945;52.036;8.614;2023-12-22T01:46:47;3.80;44.00
3860;DHT22;1945;52.036;8.614;2023-12-22T01:49:15;3.70;99.90
3860;DHT22;1945;52.036;8.614;2023-12-22T01:51:44;3.70;99.90
3860;DHT22;1945;52.036;8.614;2023-12-22T01:54:11;3.70;99.90
3860;DHT22;1945;52.036;8.614;2023-12-22T01:56:39;3.70;99.90
3860;DHT22;1945;52.036;8.614;2023-12-22T01:59:06;3.80;99.90
3860;DHT22;1945;52.036;8.614;2023-12-22T02:01:33;3.80;99.90
3860;DHT22;1945;52.036;8.614;2023-12-22T02:04:00;3.80;99.90
3860;DHT22;1945;52.036;8.614;2023-12-22T02:06:29;3.80;66.20
3860;DHT22;1945;52.036;8.614;2023-12-22T02:08:57;3.90;1.00
3860;DHT22;1945;52.036;8.614;2023-12-22T02:11:24;4.00;1.00
3860;DHT22;1945;52.036;8.614;2023-12-22T02:13:51;4.10;1.00
3860;DHT22;1945;52.036;8.614;2023-12-22T02:16:21;4.10;1.00
3860;DHT22;1945;52.036;8.614;2023-12-22T02:18:54;4.20;99.90
3860;DHT22;1945;52.036;8.614;2023-12-22T02:21:21;4.80;99.90
3860;DHT22;1945;52.036;8.614;2023-12-22T02:23:49;4.40;4.90
3860;DHT22;1945;52.036;8.614;2023-12-22T02:26:20;4.90;43.70
3860;DHT22;1945;52.036;8.614;2023-12-22T02:28:48;4.50;1.00
3860;DHT22;1945;52.036;8.614;2023-12-22T02:31:22;4.60;1.00
3860;DHT22;1945;52.036;8.614;2023-12-22T02:33:54;4.60;99.90
3860;DHT22;1945;52.036;8.614;2023-12-22T02:36:25;4.70;1.00
3860;DHT22;1945;52.036;8.614;2023-12-22T02:38:57;4.80;1.00
3860;DHT22;1945;52.036;8.614;2023-12-22T02:41:24;5.20;99.90
3860;DHT22;1945;52.036;8.614;2023-12-22T02:43:52;5.30;58.90
3860;DHT22;1945;52.036;8.614;2023-12-22T02:46:19;4.40;99.90
3860;DHT22;1945;52.036;8.614;2023-12-22T02:48:45;4.70;99.90
3860;DHT22;1945;52.036;8.614;2023-12-22T02:51:12;4.70;1.00
3860;DHT22;1945;52.036;8.614;2023-12-22T02:53:39;4.60;1.00
3860;DHT22;1945;52.036;8.614;2023-12-22T02:56:07;4.60;1.00
3860;DHT22;1945;52.036;8.614;2023-12-22T02:58:34;4.60;1.00
3860;DHT22;1945;52.036;8.614;2023-12-22T03:01:01;4.60;1.00
3860;DHT22;1945;52.036;8.614;2023-12-22T03:03:28;4.50;1.00
3860;DHT22;1945;52.036;8.614;2023-12-22T03:05:55;4.50;99.90
3860;DHT22;1945;52.036;8.614;2023-12-22T03:08:21;4.50;99.90
3860;DHT22;1945;52.036;8.614;2023-12-22T03:10:48;4.50;99.90
3860;DHT22;1945;52.036;8.614;2023-12-22T03:13:16;4.80;99.90
3860;DHT22;1945;52.036;8.614;2023-12-22T03:15:43;4.40;99.90
3860;DHT22;1945;52.036;8.614;2023-12-22T03:18:10;4.40;99.90
3860;DHT22;1945;52.036;8.614;2023-12-22T03:20:36;4.40;99.90
3860;DHT22;1945;52.036;8.614;2023-12-22T03:23:03;4.40;1.00
3860;DHT22;1945;52.036;8.614;2023-12-22T03:25:30;4.40;1.00
3860;DHT22;1945;52.036;8.614;2023-12-22T03:27:57;4.50;1.00
3860;DHT22;1945;52.036;8.614;2023-12-22T03:30:25;4.50;1.00
3860;DHT22;1945;52.036;8.614;2023-12-22T03:32:52;4.50;1.00
3860;DHT22;1945;52.036;8.614;2023-12-22T03:35:18;4.70;1.00
3860;DHT22;1945;52.036;8.614;2023-12-22T03:37:45;4.60;1.00
3860;DHT22;1945;52.036;8.614;2023-12-22T03:40:12;4.90;99.90
3860;DHT22;1945;52.036;8.614;2023-12-22T03:42:39;4.90;99.90
3860;DHT22;1945;52.036;8.614;2023-12-22T03:45:07;5.00;99.90
3860;DHT22;1945;52.036;8.614;2023-12-22T03:47:35;4.90;99.90
3860;DHT22;1945;52.036;8.614;2023-12-22T03:50:02;5.00;99.90
3860;DHT22;1945;52.036;8.614;2023-12-22T03:52:28;5.00;99.90
3860;DHT22;1945;52.036;8.614;2023-12-22T03:54:55;5.00;99.90
3860;DHT22;1945;52.036;8.614;2023-12-22T03:57:22;5.00;99.90
3860;DHT22;1945;52.036;8.614;2023-12-22T03:59:49;4.90;1.00
3860;DHT22;1945;52.036;8.614;2023-12-22T04:02:15;4.90;1.00
3860;DHT22;1945;52.036;8.614;2023-12-22T04:04:57;5.00;1.00
3860;DHT22;1945;52.036;8.614;2023-12-22T04:07:24;5.10;1.00
3860;DHT22;1945;52.036;8.614;2023-12-22T04:09:54;5.20;1.00
3860;DHT22;1945;52.036;8.614;2023-12-22T04:12:20;5.10;1.00
3860;DHT22;1945;52.036;8.614;2023-12-22T04:14:49;5.10;1.00
3860;DHT22;1945;52.036;8.614;2023-12-22T04:17:17;5.00;1.00
3860;DHT22;1945;52.036;8.614;2023-12-22T04:19:44;5.00;37.20
3860;DHT22;1945;52.036;8.614;2023-12-22T04:22:12;4.50;99.90
3860;DHT22;1945;52.036;8.614;2023-12-22T04:24:39;5.00;99.90
3860;DHT22;1945;52.036;8.614;2023-12-22T04:27:06;5.00;99.90
3860;DHT22;1945;52.036;8.614;2023-12-22T04:29:32;5.50;99.90
3860;DHT22;1945;52.036;8.614;2023-12-22T04:31:59;4.90;99.90
3860;DHT22;1945;52.036;8.614;2023-12-22T04:34:26;5.00;99.90
3860;DHT22;1945;52.036;8.614;2023-12-22T04:36:52;4.90;99.90
3860;DHT22;1945;52.036;8.614;2023-12-22T04:39:21;5.00;99.90
3860;DHT22;1945;52.036;8.614;2023-12-22T04:41:47;5.00;99.90
3860;DHT22;1945;52.036;8.614;2023-12-22T04:44:14;5.00;1.00
3860;DHT22;1945;52.036;8.614;2023-12-22T04:46:41;5.10;1.00
3860;DHT22;1945;52.036;8.614;2023-12-22T04:49:07;5.00;16.10
3860;DHT22;1945;52.036;8.614;2023-12-22T04:51:34;5.10;1.00
3860;DHT22;1945;52.036;8.614;2023-12-22T04:54:01;5.10;1.00
3860;DHT22;1945;52.036;8.614;2023-12-22T04:56:29;5.10;1.00
3860;DHT22;1945;52.036;8.614;2023-12-22T04:58:56;5.10;6.00
3860;DHT22;1945;52.036;8.614;2023-12-22T05:01:23;5.20;1.00
3860;DHT22;1945;52.036;8.614;2023-12-22T05:03:50;5.20;8.20
3860;DHT22;1945;52.036;8.614;2023-12-22T05:06:17;5.40;1.00
3860;DHT22;1945;52.036;8.614;2023-12-22T05:08:43;5.20;1.00
3860;DHT22;1945;52.036;8.614;2023-12-22T05:11:10;5.20;1.00
3860;DHT22;1945;52.036;8.614;2023-12-22T05:13:38;5.20;1.00
3860;DHT22;1945;52.036;8.614;2023-12-22T05:16:06;5.20;1.00
3860;DHT22;1945;52.036;8.614;2023-12-22T05:18:32;5.30;1.00
3860;DHT22;1945;52.036;8.614;2023-12-22T05:20:59;5.30;1.00
3860;DHT22;1945;52.036;8.614;2023-12-22T05:23:26;5.30;1.00
3860;DHT22;1945;52.036;8.614;2023-12-22T05:25:52;5.30;1.00
3860;DHT22;1945;52.036;8.614;2023-12-22T05:28:19;5.20;1.00
3860;DHT22;1945;52.036;8.614;2023-12-22T05:30:47;5.30;1.00
3860;DHT22;1945;52.036;8.614;2023-12-22T05:33:14;4.80;1.00
3860;DHT22;1945;52.036;8.614;2023-12-22T05:35:41;5.20;1.00
3860;DHT22;1945;52.036;8.614;2023-12-22T05:38:07;5.50;1.00
3860;DHT22;1945;52.036;8.614;2023-12-22T05:40:34;5.00;99.90
3860;DHT22;1945;52.036;8.614;2023-12-22T05:43:01;5.00;99.90
3860;DHT22;1945;52.036;8.614;2023-12-22T05:45:28;4.90;99.90
3860;DHT22;1945;52.036;8.614;2023-12-22T05:47:55;4.90;99.90
3860;DHT22;1945;52.036;8.614;2023-12-22T05:50:22;4.80;99.90
3860;DHT22;1945;52.036;8.614;2023-12-22T05:52:49;4.80;99.90
3860;DHT22;1945;52.036;8.614;2023-12-22T05:55:15;4.80;99.90
3860;DHT22;1945;52.036;8.614;2023-12-22T05:57:42;4.80;99.90
3860;DHT22;1945;52.036;8.614;2023-12-22T06:00:10;4.80;99.90
3860;DHT22;1945;52.036;8.614;2023-12-22T06:02:37;4.80;40.60
3860;DHT22;1945;52.036;8.614;2023-12-22T06:05:06;4.80;99.90
3860;DHT22;1945;52.036;8.614;2023-12-22T06:07:33;4.80;99.90
3860;DHT22;1945;52.036;8.614;2023-12-22T06:10:00;5.00;99.90
3860;DHT22;1945;52.036;8.614;2023-12-22T06:12:26;4.80;99.90
3860;DHT22;1945;52.036;8.614;2023-12-22T06:14:53;4.80;99.90
3860;DHT22;1945;52.036;8.614;2023-12-22T06:17:20;4.80;99.90
3860;DHT22;1945;52.036;8.614;2023-12-22T06:19:46;4.90;99.90
3860;DHT22;1945;52.036;8.614;2023-12-22T06:22:14;4.90;99.90
3860;DHT22;1945;52.036;8.614;2023-12-22T06:24:41;5.00;98.30
3860;DHT22;1945;52.036;8.614;2023-12-22T06:27:08;5.00;99.90
3860;DHT22;1945;52.036;8.614;2023-12-22T06:29:35;5.00;96.70
3860;DHT22;1945;52.036;8.614;2023-12-22T06:32:02;5.10;1.00
3860;DHT22;1945;52.036;8.614;2023-12-22T06:34:31;5.10;90.20
3860;DHT22;1945;52.036;8.614;2023-12-22T06:36:58;5.10;10.20
3860;DHT22;1945;52.036;8.614;2023-12-22T06:39:26;5.10;1.00
3860;DHT22;1945;52.036;8.614;2023-12-22T06:41:52;5.50;1.00
3860;DHT22;1945;52.036;8.614;2023-12-22T06:44:19;5.20;1.00
3860;DHT22;1945;52.036;8.614;2023-12-22T06:46:46;5.30;1.00
3860;DHT22;1945;52.036;8.614;2023-12-22T06:49:12;5.30;1.00
3860;DHT22;1945;52.036;8.614;2023-12-22T06:51:40;5.30;1.00
3860;DHT22;1945;52.036;8.614;2023-12-22T06:54:07;5.30;1.00
3860;DHT22;1945;52.036;8.614;2023-12-22T06:56:35;5.40;1.00
3860;DHT22;1945;52.036;8.614;2023-12-22T06:59:02;5.30;1.00
3860;DHT22;1945;52.036;8.614;2023-12-22T07:01:30;5.30;1.00
3860;DHT22;1945;52.036;8.614;2023-12-22T07:03:58;5.30;1.00
3860;DHT22;1945;52.036;8.614;2023-12-22T07:06:26;5.40;1.00
3860;DHT22;1945;52.036;8.614;2023-12-22T07:11:46;5.30;1.00
3860;DHT22;1945;52.036;8.614;2023-12-22T07:14:13;5.40;1.00
3860;DHT22;1945;52.036;8.614;2023-12-22T07:16:40;5.50;1.00
3860;DHT22;1945;52.036;8.614;2023-12-22T07:19:07;5.50;1.00
3860;DHT22;1945;52.036;8.614;2023-12-22T07:21:34;5.50;1.00
3860;DHT22;1945;52.036;8.614;2023-12-22T07:24:01;5.50;1.00
3860;DHT22;1945;52.036;8.614;2023-12-22T07:26:27;5.50;1.00
3860;DHT22;1945;52.036;8.614;2023-12-22T07:28:55;6.10;1.00
3860;DHT22;1945;52.036;8.614;2023-12-22T07:31:23;5.30;1.00
3860;DHT22;1945;52.036;8.614;2023-12-22T07:33:50;5.60;1.00
3860;DHT22;1945;52.036;8.614;2023-12-22T07:36:17;5.50;1.00
3860;DHT22;1945;52.036;8.614;2023-12-22T07:38:46;5.50;1.00
3860;DHT22;1945;52.036;8.614;2023-12-22T07:41:13;5.60;1.00
3860;DHT22;1945;52.036;8.614;2023-12-22T07:43:40;5.60;1.00
3860;DHT22;1945;52.036;8.614;2023-12-22T07:46:16;5.60;1.00
3860;DHT22;1945;52.036;8.614;2023-12-22T07:48:42;5.50;1.00
3860;DHT22;1945;52.036;8.614;2023-12-22T07:51:10;5.70;1.00
3860;DHT22;1945;52.036;8.614;2023-12-22T07:53:37;5.60;1.00
3860;DHT22;1945;52.036;8.614;2023-12-22T07:56:05;5.60;1.00
3860;DHT22;1945;52.036;8.614;2023-12-22T07:58:33;5.60;1.00
3860;DHT22;1945;52.036;8.614;2023-12-22T08:01:00;5.60;1.00
3860;DHT22;1945;52.036;8.614;2023-12-22T08:03:28;5.70;1.00
3860;DHT22;1945;52.036;8.614;2023-12-22T08:05:55;5.70;1.00
3860;DHT22;1945;52.036;8.614;2023-12-22T08:08:22;5.70;1.00
3860;DHT22;1945;52.036;8.614;2023-12-22T08:10:49;5.70;1.00
3860;DHT22;1945;52.036;8.614;2023-12-22T08:13:16;5.70;1.00
3860;DHT22;1945;52.036;8.614;2023-12-22T08:15:43;5.70;1.00
3860;DHT22;1945;52.036;8.614;2023-12-22T08:18:10;5.70;1.00
3860;DHT22;1945;52.036;8.614;2023-12-22T08:20:38;5.80;1.00
3860;DHT22;1945;52.036;8.614;2023-12-22T08:23:05;5.80;1.00
3860;DHT22;1945;52.036;8.614;2023-12-22T08:25:32;5.80;1.00
3860;DHT22;1945;52.036;8.614;2023-12-22T08:27:58;5.80;1.00
3860;DHT22;1945;52.036;8.614;2023-12-22T08:30:26;5.80;1.00
3860;DHT22;1945;52.036;8.614;2023-12-22T08:32:53;5.80;1.00
3860;DHT22;1945;52.036;8.614;2023-12-22T08:35:20;5.80;1.00
3860;DHT22;1945;52.036;8.614;2023-12-22T08:37:48;5.90;1.00
3860;DHT22;1945;52.036;8.614;2023-12-22T08:40:15;5.90;1.00
3860;DHT22;1945;52.036;8.614;2023-12-22T08:42:41;6.00;1.00
3860;DHT22;1945;52.036;8.614;2023-12-22T08:45:08;6.00;1.00
3860;DHT22;1945;52.036;8.614;2023-12-22T08:47:35;6.00;1.00
3860;DHT22;1945;52.036;8.614;2023-12-22T08:50:02;6.00;1.00
3860;DHT22;1945;52.036;8.614;2023-12-22T08:52:33;6.00;1.00
3860;DHT22;1945;52.036;8.614;2023-12-22T08:55:01;6.00;1.00
3860;DHT22;1945;52.036;8.614;2023-12-22T08:57:28;6.30;1.00
3860;DHT22;1945;52.036;8.614;2023-12-22T08:59:55;6.10;1.00
3860;DHT22;1945;52.036;8.614;2023-12-22T09:02:22;6.10;1.00
3860;DHT22;1945;52.036;8.614;2023-12-22T09:04:48;6.10;1.00
3860;DHT22;1945;52.036;8.614;2023-12-22T09:07:16;6.20;1.00
3860;DHT22;1945;52.036;8.614;2023-12-22T09:09:44;6.20;1.00
3860;DHT22;1945;52.036;8.614;2023-12-22T09:12:12;6.20;1.00
3860;DHT22;1945;52.036;8.614;2023-12-22T09:14:39;6.20;1.00
3860;DHT22;1945;52.036;8.614;2023-12-22T09:17:06;6.20;1.00
3860;DHT22;1945;52.036;8.614;2023-12-22T09:19:33;6.20;1.00
3860;DHT22;1945;52.036;8.614;2023-12-22T09:22:00;6.20;1.00
3860;DHT22;1945;52.036;8.614;2023-12-22T09:24:27;6.20;1.00
3860;DHT22;1945;52.036;8.614;2023-12-22T09:26:54;6.20;1.00
3860;DHT22;1945;52.036;8.614;2023-12-22T09:29:22;6.30;1.00
3860;DHT22;1945;52.036;8.614;2023-12-22T09:31:49;6.20;1.00
3860;DHT22;1945;52.036;8.614;2023-12-22T09:34:15;6.20;10.00
3860;DHT22;1945;52.036;8.614;2023-12-22T09:36:42;6.20;13.30
3860;DHT22;1945;52.036;8.614;2023-12-22T09:39:09;6.20;15.20
3860;DHT22;1945;52.036;8.614;2023-12-22T09:41:35;6.20;99.90
3860;DHT22;1945;52.036;8.614;2023-12-22T09:44:04;6.70;99.90
3860;DHT22;1945;52.036;8.614;2023-12-22T09:46:34;6.20;99.90
3860;DHT22;1945;52.036;8.614;2023-12-22T09:49:01;6.20;99.90
3860;DHT22;1945;52.036;8.614;2023-12-22T09:51:29;6.20;99.90
3860;DHT22;1945;52.036;8.614;2023-12-22T09:53:57;6.30;99.90
3860;DHT22;1945;52.036;8.614;2023-12-22T09:56:25;6.20;99.90
3860;DHT22;1945;52.036;8.614;2023-12-22T09:58:53;6.20;99.90
3860;DHT22;1945;52.036;8.614;2023-12-22T10:01:22;6.20;99.90
3860;DHT22;1945;52.036;8.614;2023-12-22T10:03:51;6.20;1.00
3860;DHT22;1945;52.036;8.614;2023-12-22T10:06:18;6.20;1.00
3860;DHT22;1945;52.036;8.614;2023-12-22T10:08:46;6.20;99.90
3860;DHT22;1945;52.036;8.614;2023-12-22T10:11:17;6.20;99.90
3860;DHT22;1945;52.036;8.614;2023-12-22T10:13:44;6.20;1.00
3860;DHT22;1945;52.036;8.614;2023-12-22T10:16:10;6.30;1.00
3860;DHT22;1945;52.036;8.614;2023-12-22T10:18:37;6.30;1.00
3860;DHT22;1945;52.036;8.614;2023-12-22T10:21:05;6.30;1.00
3860;DHT22;1945;52.036;8.614;2023-12-22T10:23:32;6.20;1.00
3860;DHT22;1945;52.036;8.614;2023-12-22T10:26:02;6.30;1.00
3860;DHT22;1945;52.036;8.614;2023-12-22T10:28:29;6.30;1.00
3860;DHT22;1945;52.036;8.614;2023-12-22T10:30:56;6.30;1.00
3860;DHT22;1945;52.036;8.614;2023-12-22T10:33:29;6.30;1.00
3860;DHT22;1945;52.036;8.614;2023-12-22T10:35:56;6.30;99.90
3860;DHT22;1945;52.036;8.614;2023-12-22T10:38:25;6.40;1.00
3860;DHT22;1945;52.036;8.614;2023-12-22T10:40:52;6.40;1.00
3860;DHT22;1945;52.036;8.614;2023-12-22T10:43:19;6.40;99.90
3860;DHT22;1945;52.036;8.614;2023-12-22T10:45:45;6.40;99.90
3860;DHT22;1945;52.036;8.614;2023-12-22T10:48:13;6.40;99.90
3860;DHT22;1945;52.036;8.614;2023-12-22T10:50:40;6.50;99.90
3860;DHT22;1945;52.036;8.614;2023-12-22T10:53:07;6.50;99.90
3860;DHT22;1945;52.036;8.614;2023-12-22T10:55:36;6.50;99.90
3860;DHT22;1945;52.036;8.614;2023-12-22T10:58:03;6.50;99.90
3860;DHT22;1945;52.036;8.614;2023-12-22T11:00:32;6.50;99.90
3860;DHT22;1945;52.036;8.614;2023-12-22T11:03:01;6.50;99.90
3860;DHT22;1945;52.036;8.614;2023-12-22T11:05:29;6.50;99.90
3860;DHT22;1945;52.036;8.614;2023-12-22T11:08:00;6.50;99.90
3860;DHT22;1945;52.036;8.614;2023-12-22T11:10:30;6.60;99.90
3860;DHT22;1945;52.036;8.614;2023-12-22T11:12:59;6.60;99.90
3860;DHT22;1945;52.036;8.614;2023-12-22T11:15:27;6.60;99.90
3860;DHT22;1945;52.036;8.614;2023-12-22T11:17:56;6.60;99.90
3860;DHT22;1945;52.036;8.614;2023-12-22T11:20:25;6.60;99.90
3860;DHT22;1945;52.036;8.614;2023-12-22T11:22:55;6.60;99.90
3860;DHT22;1945;52.036;8.614;2023-12-22T11:25:24;6.60;99.90
3860;DHT22;1945;52.036;8.614;2023-12-22T11:27:52;6.60;99.90
3860;DHT22;1945;52.036;8.614;2023-12-22T11:30:22;6.60;99.90
3860;DHT22;1945;52.036;8.614;2023-12-22T11:32:49;6.60;99.90
3860;DHT22;1945;52.036;8.614;2023-12-22T11:35:16;6.60;99.90
3860;DHT22;1945;52.036;8.614;2023-12-22T11:37:43;6.60;99.90
3860;DHT22;1945;52.036;8.614;2023-12-22T11:40:11;6.60;99.90
3860;DHT22;1945;52.036;8.614;2023-12-22T11:42:40;6.60;99.90
3860;DHT22;1945;52.036;8.614;2023-12-22T11:45:10;6.60;1.00
3860;DHT22;1945;52.036;8.614;2023-12-22T11:47:38;6.70;1.00
3860;DHT22;1945;52.036;8.614;2023-12-22T11:50:09;6.60;1.00
3860;DHT22;1945;52.036;8.614;2023-12-22T11:52:38;6.70;1.00
3860;DHT22;1945;52.036;8.614;2023-12-22T11:55:05;6.70;1.00
3860;DHT22;1945;52.036;8.614;2023-12-22T11:57:34;6.70;1.00
3860;DHT22;1945;52.036;8.614;2023-12-22T12:00:03;6.60;1.00
3860;DHT22;1945;52.036;8.614;2023-12-22T12:02:32;6.60;1.00
3860;DHT22;1945;52.036;8.614;2023-12-22T12:05:02;6.60;1.00
3860;DHT22;1945;52.036;8.614;2023-12-22T12:07:40;6.60;1.00
3860;DHT22;1945;52.036;8.614;2023-12-22T12:10:07;6.60;1.00
3860;DHT22;1945;52.036;8.614;2023-12-22T12:12:34;6.60;1.00
3860;DHT22;1945;52.036;8.614;2023-12-22T12:15:07;6.60;1.00
3860;DHT22;1945;52.036;8.614;2023-12-22T12:17:38;6.60;1.00
3860;DHT22;1945;52.036;8.614;2023-12-22T12:20:08;6.60;1.00
3860;DHT22;1945;52.036;8.614;2023-12-22T12:22:35;6.60;1.00
3860;DHT22;1945;52.036;8.614;2023-12-22T12:25:07;6.60;1.00
3860;DHT22;1945;52.036;8.614;2023-12-22T12:27:34;6.60;1.00
3860;DHT22;1945;52.036;8.614;2023-12-22T12:30:07;6.60;1.00
3860;DHT22;1945;52.036;8.614;2023-12-22T12:32:35;6.60;1.00
3860;DHT22;1945;52.036;8.614;2023-12-22T12:35:03;6.60;1.00
3860;DHT22;1945;52.036;8.614;2023-12-22T12:37:31;6.60;99.90
3860;DHT22;1945;52.036;8.614;2023-12-22T12:39:59;6.60;1.00
3860;DHT22;1945;52.036;8.614;2023-12-22T12:42:31;6.70;99.90
3860;DHT22;1945;52.036;8.614;2023-12-22T12:45:00;6.60;99.90
3860;DHT22;1945;52.036;8.614;2023-12-22T12:47:29;6.60;99.90
3860;DHT22;1945;52.036;8.614;2023-12-22T12:50:02;6.60;99.90
3860;DHT22;1945;52.036;8.614;2023-12-22T12:52:41;6.60;99.90
3860;DHT22;1945;52.036;8.614;2023-12-22T12:55:13;6.60;99.90
3860;DHT22;1945;52.036;8.614;2023-12-22T12:57:40;6.60;99.90
3860;DHT22;1945;52.036;8.614;2023-12-22T13:00:11;6.60;99.90
3860;DHT22;1945;52.036;8.614;2023-12-22T13:02:38;6.60;99.90
3860;DHT22;1945;52.036;8.614;2023-12-22T13:05:08;6.60;99.90
3860;DHT22;1945;52.036;8.614;2023-12-22T13:07:37;6.60;99.90
3860;DHT22;1945;52.036;8.614;2023-12-22T13:10:22;6.60;99.90
3860;DHT22;1945;52.036;8.614;2023-12-22T13:12:52;6.60;99.90
3860;DHT22;1945;52.036;8.614;2023-12-22T13:15:23;6.60;99.90
3860;DHT22;1945;52.036;8.614;2023-12-22T13:17:49;6.60;99.90
3860;DHT22;1945;52.036;8.614;2023-12-22T13:20:20;6.60;99.90
3860;DHT22;1945;52.036;8.614;2023-12-22T13:22:46;6.70;78.90
3860;DHT22;1945;52.036;8.614;2023-12-22T13:25:13;6.70;99.90
3860;DHT22;1945;52.036;8.614;2023-12-22T13:27:49;6.70;99.90
3860;DHT22;1945;52.036;8.614;2023-12-22T13:30:34;6.70;99.90
3860;DHT22;1945;52.036;8.614;2023-12-22T13:33:01;6.70;99.90
3860;DHT22;1945;52.036;8.614;2023-12-22T13:35:28;6.60;99.90
3860;DHT22;1945;52.036;8.614;2023-12-22T13:37:55;6.60;99.90
3860;DHT22;1945;52.036;8.614;2023-12-22T13:40:22;6.60;1.00
3860;DHT22;1945;52.036;8.614;2023-12-22T13:42:55;6.60;1.00
3860;DHT22;1945;52.036;8.614;2023-12-22T13:45:22;6.50;99.90
3860;DHT22;1945;52.036;8.614;2023-12-22T13:47:49;6.60;99.90
3860;DHT22;1945;52.036;8.614;2023-12-22T13:50:17;6.60;99.90
3860;DHT22;1945;52.036;8.614;2023-12-22T13:52:45;6.70;99.90
3860;DHT22;1945;52.036;8.614;2023-12-22T13:55:18;6.70;99.90
3860;DHT22;1945;52.036;8.614;2023-12-22T13:57:45;6.60;99.90
3860;DHT22;1945;52.036;8.614;2023-12-22T14:00:29;6.60;1.00
3860;DHT22;1945;52.036;8.614;2023-12-22T14:02:56;6.50;1.00
3860;DHT22;1945;52.036;8.614;2023-12-22T14:05:23;6.50;1.00
3860;DHT22;1945;52.036;8.614;2023-12-22T14:07:50;6.50;1.00
3860;DHT22;1945;52.036;8.614;2023-12-22T14:10:17;6.40;1.00
3860;DHT22;1945;52.036;8.614;2023-12-22T14:12:43;6.40;1.00
3860;DHT22;1945;52.036;8.614;2023-12-22T14:15:12;6.40;1.00
3860;DHT22;1945;52.036;8.614;2023-12-22T14:17:40;6.40;1.00
3860;DHT22;1945;52.036;8.614;2023-12-22T14:20:08;6.40;1.00
3860;DHT22;1945;52.036;8.614;2023-12-22T14:22:36;6.40;1.00
3860;DHT22;1945;52.036;8.614;2023-12-22T14:25:04;6.40;1.00
3860;DHT22;1945;52.036;8.614;2023-12-22T14:27:31;6.40;1.00
3860;DHT22;1945;52.036;8.614;2023-12-22T14:29:57;6.40;1.00
3860;DHT22;1945;52.036;8.614;2023-12-22T14:32:24;6.40;1.00
3860;DHT22;1945;52.036;8.614;2023-12-22T14:34:52;6.40;1.00
3860;DHT22;1945;52.036;8.614;2023-12-22T14:37:19;6.40;10.80
3860;DHT22;1945;52.036;8.614;2023-12-22T14:39:53;6.40;29.00
3860;DHT22;1945;52.036;8.614;2023-12-22T14:42:20;6.40;80.70
3860;DHT22;1945;52.036;8.614;2023-12-22T14:44:47;6.80;99.90
3860;DHT22;1945;52.036;8.614;2023-12-22T14:47:14;6.40;99.90
3860;DHT22;1945;52.036;8.614;2023-12-22T14:49:43;6.90;99.90
3860;DHT22;1945;52.036;8.614;2023-12-22T14:52:13;6.50;99.90
3860;DHT22;1945;52.036;8.614;2023-12-22T14:54:39;6.40;99.90
3860;DHT22;1945;52.036;8.614;2023-12-22T14:57:06;6.80;99.90
3860;DHT22;1945;52.036;8.614;2023-12-22T14:59:39;6.30;99.90
3860;DHT22;1945;52.036;8.614;2023-12-22T15:02:06;6.40;99.90
3860;DHT22;1945;52.036;8.614;2023-12-22T15:04:32;6.40;99.90
3860;DHT22;1945;52.036;8.614;2023-12-22T15:06:59;6.70;99.90
3860;DHT22;1945;52.036;8.614;2023-12-22T15:09:28;6.50;99.90
3860;DHT22;1945;52.036;8.614;2023-12-22T15:11:55;6.30;99.90
3860;DHT22;1945;52.036;8.614;2023-12-22T15:14:24;6.40;99.90
3860;DHT22;1945;52.036;8.614;2023-12-22T15:16:51;6.40;99.90
3860;DHT22;1945;52.036;8.614;2023-12-22T15:19:18;6.70;99.90
3860;DHT22;1945;52.036;8.614;2023-12-22T15:22:09;6.40;99.90
3860;DHT22;1945;52.036;8.614;2023-12-22T15:24:39;6.40;99.90
3860;DHT22;1945;52.036;8.614;2023-12-22T15:27:15;6.40;99.90
3860;DHT22;1945;52.036;8.614;2023-12-22T15:29:45;6.80;99.90
3860;DHT22;1945;52.036;8.614;2023-12-22T15:32:12;6.40;99.90
3860;DHT22;1945;52.036;8.614;2023-12-22T15:34:41;6.40;99.90
3860;DHT22;1945;52.036;8.614;2023-12-22T15:37:07;6.40;99.90
3860;DHT22;1945;52.036;8.614;2023-12-22T15:39:34;6.40;99.90
3860;DHT22;1945;52.036;8.614;2023-12-22T15:42:03;6.40;99.90
3860;DHT22;1945;52.036;8.614;2023-12-22T15:44:29;6.40;99.90
3860;DHT22;1945;52.036;8.614;2023-12-22T15:46:57;6.50;99.90
3860;DHT22;1945;52.036;8.614;2023-12-22T15:49:24;6.50;99.90
3860;DHT22;1945;52.036;8.614;2023-12-22T15:51:50;6.50;99.90
3860;DHT22;1945;52.036;8.614;2023-12-22T15:54:18;6.90;99.90
3860;DHT22;1945;52.036;8.614;2023-12-22T15:56:46;6.60;99.90
3860;DHT22;1945;52.036;8.614;2023-12-22T15:59:14;6.60;99.90
3860;DHT22;1945;52.036;8.614;2023-12-22T16:01:43;6.60;99.90
3860;DHT22;1945;52.036;8.614;2023-12-22T16:04:10;6.60;99.90
3860;DHT22;1945;52.036;8.614;2023-12-22T16:06:37;6.70;99.90
3860;DHT22;1945;52.036;8.614;2023-12-22T16:09:04;7.00;99.90
3860;DHT22;1945;52.036;8.614;2023-12-22T16:11:31;6.80;99.90
3860;DHT22;1945;52.036;8.614;2023-12-22T16:13:58;7.10;99.90
3860;DHT22;1945;52.036;8.614;2023-12-22T16:16:26;7.20;99.90
3860;DHT22;1945;52.036;8.614;2023-12-22T16:18:52;6.70;99.90
3860;DHT22;1945;52.036;8.614;2023-12-22T16:21:19;6.70;99.90
3860;DHT22;1945;52.036;8.614;2023-12-22T16:23:46;6.70;99.90
3860;DHT22;1945;52.036;8.614;2023-12-22T16:26:13;6.70;99.90
3860;DHT22;1945;52.036;8.614;2023-12-22T16:28:44;6.70;96.30
3860;DHT22;1945;52.036;8.614;2023-12-22T16:31:11;6.70;99.90
3860;DHT22;1945;52.036;8.614;2023-12-22T16:33:39;6.70;99.90